Terminal Aerodrome Forecast
Issued by NWS Newport/Morehead City, NC

Home | Current Version | Previous Version | Text Only | Print | Product List | Glossary On
Versions: 1 2 3 4 5 6 7 8 9 10 11 12 13 14 15 16 17 18 19 20 21 22
000
FTUS42 KMHX 171004 AAB
TAFEWN
TAF AMD
KEWN 171004Z 1710/1806 00000KT 6SM BR SKC
      TEMPO 1710/1713 2SM BR BKN007
     FM171300 VRB03KT 2SM BR SCT007
     FM171400 VRB03KT P6SM SCT015
     FM171700 17007KT P6SM SCT035 BKN090=

USA.gov is the U.S. government's official web portal to all federal, state and local government web resources and services.